sensor_id;sensor_type;location;lat;lon;timestamp;P1;durP1;ratioP1;P2;durP2;ratioP2
3189;SDS011;1606;51.946;10.558;2022-08-14T00:02:14;12.83;;;8.60;;
3189;SDS011;1606;51.946;10.558;2022-08-14T00:04:42;11.47;;;7.43;;
3189;SDS011;1606;51.946;10.558;2022-08-14T00:07:11;12.40;;;8.70;;
3189;SDS011;1606;51.946;10.558;2022-08-14T00:09:40;13.50;;;7.60;;
3189;SDS011;1606;51.946;10.558;2022-08-14T00:12:27;13.53;;;8.57;;
3189;SDS011;1606;51.946;10.558;2022-08-14T00:15:18;14.93;;;8.53;;
3189;SDS011;1606;51.946;10.558;2022-08-14T00:17:47;13.60;;;9.40;;
3189;SDS011;1606;51.946;10.558;2022-08-14T00:20:19;13.70;;;8.80;;
3189;SDS011;1606;51.946;10.558;2022-08-14T00:23:01;12.83;;;7.87;;
3189;SDS011;1606;51.946;10.558;2022-08-14T00:25:39;13.57;;;7.80;;
3189;SDS011;1606;51.946;10.558;2022-08-14T00:28:19;12.50;;;8.10;;
3189;SDS011;1606;51.946;10.558;2022-08-14T00:30:59;12.70;;;8.50;;
3189;SDS011;1606;51.946;10.558;2022-08-14T00:33:27;15.63;;;8.70;;
3189;SDS011;1606;51.946;10.558;2022-08-14T00:36:15;13.33;;;9.40;;
3189;SDS011;1606;51.946;10.558;2022-08-14T00:39:03;13.10;;;9.35;;
3189;SDS011;1606;51.946;10.558;2022-08-14T00:41:34;13.10;;;9.97;;
3189;SDS011;1606;51.946;10.558;2022-08-14T00:44:04;14.93;;;10.07;;
3189;SDS011;1606;51.946;10.558;2022-08-14T00:46:34;17.20;;;9.90;;
3189;SDS011;1606;51.946;10.558;2022-08-14T00:49:03;14.10;;;9.93;;
3189;SDS011;1606;51.946;10.558;2022-08-14T00:51:36;16.40;;;11.00;;
3189;SDS011;1606;51.946;10.558;2022-08-14T00:54:06;13.40;;;9.30;;
3189;SDS011;1606;51.946;10.558;2022-08-14T00:56:47;14.03;;;9.90;;
3189;SDS011;1606;51.946;10.558;2022-08-14T00:59:20;13.63;;;10.33;;
3189;SDS011;1606;51.946;10.558;2022-08-14T01:01:51;15.00;;;9.87;;
3189;SDS011;1606;51.946;10.558;2022-08-14T01:04:23;13.20;;;8.40;;
3189;SDS011;1606;51.946;10.558;2022-08-14T01:07:13;12.60;;;8.00;;
3189;SDS011;1606;51.946;10.558;2022-08-14T01:09:47;13.33;;;9.33;;
3189;SDS011;1606;51.946;10.558;2022-08-14T01:12:17;13.60;;;9.23;;
3189;SDS011;1606;51.946;10.558;2022-08-14T01:14:54;13.50;;;9.00;;
3189;SDS011;1606;51.946;10.558;2022-08-14T01:17:25;14.50;;;9.87;;
3189;SDS011;1606;51.946;10.558;2022-08-14T01:20:17;13.47;;;9.90;;
3189;SDS011;1606;51.946;10.558;2022-08-14T01:23:06;15.07;;;8.90;;
3189;SDS011;1606;51.946;10.558;2022-08-14T01:25:43;13.30;;;9.20;;
3189;SDS011;1606;51.946;10.558;2022-08-14T01:28:12;13.07;;;9.33;;
3189;SDS011;1606;51.946;10.558;2022-08-14T01:31:00;14.33;;;9.43;;
3189;SDS011;1606;51.946;10.558;2022-08-14T01:33:31;14.20;;;9.67;;
3189;SDS011;1606;51.946;10.558;2022-08-14T01:36:19;14.70;;;8.80;;
3189;SDS011;1606;51.946;10.558;2022-08-14T01:38:50;14.13;;;9.67;;
3189;SDS011;1606;51.946;10.558;2022-08-14T01:41:23;14.77;;;9.30;;
3189;SDS011;1606;51.946;10.558;2022-08-14T01:43:57;16.57;;;9.37;;
3189;SDS011;1606;51.946;10.558;2022-08-14T01:46:29;14.83;;;9.40;;
3189;SDS011;1606;51.946;10.558;2022-08-14T01:49:03;12.60;;;8.70;;
3189;SDS011;1606;51.946;10.558;2022-08-14T01:51:33;14.60;;;9.47;;
3189;SDS011;1606;51.946;10.558;2022-08-14T01:54:04;13.43;;;9.70;;
3189;SDS011;1606;51.946;10.558;2022-08-14T01:56:35;13.57;;;9.77;;
3189;SDS011;1606;51.946;10.558;2022-08-14T01:59:05;18.07;;;10.50;;
3189;SDS011;1606;51.946;10.558;2022-08-14T02:01:43;14.57;;;9.80;;
3189;SDS011;1606;51.946;10.558;2022-08-14T02:04:22;12.80;;;9.83;;
3189;SDS011;1606;51.946;10.558;2022-08-14T02:07:11;13.60;;;10.27;;
3189;SDS011;1606;51.946;10.558;2022-08-14T02:09:42;14.80;;;10.70;;
3189;SDS011;1606;51.946;10.558;2022-08-14T02:12:21;16.10;;;10.20;;
3189;SDS011;1606;51.946;10.558;2022-08-14T02:14:54;15.07;;;10.63;;
3189;SDS011;1606;51.946;10.558;2022-08-14T02:17:26;13.80;;;10.67;;
3189;SDS011;1606;51.946;10.558;2022-08-14T02:19:56;14.90;;;9.90;;
3189;SDS011;1606;51.946;10.558;2022-08-14T02:22:24;14.63;;;10.00;;
3189;SDS011;1606;51.946;10.558;2022-08-14T02:24:59;15.20;;;10.10;;
3189;SDS011;1606;51.946;10.558;2022-08-14T02:27:27;17.30;;;11.00;;
3189;SDS011;1606;51.946;10.558;2022-08-14T02:30:15;13.60;;;9.30;;
3189;SDS011;1606;51.946;10.558;2022-08-14T02:32:43;15.83;;;10.70;;
3189;SDS011;1606;51.946;10.558;2022-08-14T02:35:11;18.00;;;10.03;;
3189;SDS011;1606;51.946;10.558;2022-08-14T02:37:44;15.73;;;10.40;;
3189;SDS011;1606;51.946;10.558;2022-08-14T02:40:16;15.37;;;10.60;;
3189;SDS011;1606;51.946;10.558;2022-08-14T02:42:45;15.33;;;10.10;;
3189;SDS011;1606;51.946;10.558;2022-08-14T02:45:22;16.40;;;9.87;;
3189;SDS011;1606;51.946;10.558;2022-08-14T02:48:03;15.70;;;10.60;;
3189;SDS011;1606;51.946;10.558;2022-08-14T02:50:52;16.13;;;10.17;;
3189;SDS011;1606;51.946;10.558;2022-08-14T02:53:20;14.03;;;9.80;;
3189;SDS011;1606;51.946;10.558;2022-08-14T02:55:49;20.00;;;10.40;;
3189;SDS011;1606;51.946;10.558;2022-08-14T02:58:18;15.40;;;10.00;;
3189;SDS011;1606;51.946;10.558;2022-08-14T03:00:56;14.30;;;10.47;;
3189;SDS011;1606;51.946;10.558;2022-08-14T03:03:24;15.80;;;10.90;;
3189;SDS011;1606;51.946;10.558;2022-08-14T03:05:56;16.20;;;11.20;;
3189;SDS011;1606;51.946;10.558;2022-08-14T03:08:25;14.47;;;11.40;;
3189;SDS011;1606;51.946;10.558;2022-08-14T03:10:58;16.70;;;10.43;;
3189;SDS011;1606;51.946;10.558;2022-08-14T03:13:33;13.83;;;10.60;;
3189;SDS011;1606;51.946;10.558;2022-08-14T03:16:03;14.03;;;10.13;;
3189;SDS011;1606;51.946;10.558;2022-08-14T03:18:46;14.83;;;11.13;;
3189;SDS011;1606;51.946;10.558;2022-08-14T03:21:18;15.50;;;10.70;;
3189;SDS011;1606;51.946;10.558;2022-08-14T03:23:49;13.50;;;10.47;;
3189;SDS011;1606;51.946;10.558;2022-08-14T03:26:25;15.00;;;10.60;;
3189;SDS011;1606;51.946;10.558;2022-08-14T03:28:55;15.10;;;10.97;;
3189;SDS011;1606;51.946;10.558;2022-08-14T03:31:26;15.20;;;11.00;;
3189;SDS011;1606;51.946;10.558;2022-08-14T03:33:55;13.70;;;10.00;;
3189;SDS011;1606;51.946;10.558;2022-08-14T03:36:25;14.87;;;10.60;;
3189;SDS011;1606;51.946;10.558;2022-08-14T03:39:13;15.97;;;12.23;;
3189;SDS011;1606;51.946;10.558;2022-08-14T03:41:50;16.70;;;11.53;;
3189;SDS011;1606;51.946;10.558;2022-08-14T03:44:19;16.43;;;11.70;;
3189;SDS011;1606;51.946;10.558;2022-08-14T03:47:07;15.10;;;11.60;;
3189;SDS011;1606;51.946;10.558;2022-08-14T03:49:37;13.30;;;9.80;;
3189;SDS011;1606;51.946;10.558;2022-08-14T03:52:08;18.03;;;11.57;;
3189;SDS011;1606;51.946;10.558;2022-08-14T03:54:58;15.87;;;11.90;;
3189;SDS011;1606;51.946;10.558;2022-08-14T03:57:27;19.20;;;12.60;;
3189;SDS011;1606;51.946;10.558;2022-08-14T03:59:57;18.43;;;10.60;;
3189;SDS011;1606;51.946;10.558;2022-08-14T04:02:28;16.33;;;11.80;;
3189;SDS011;1606;51.946;10.558;2022-08-14T04:05:02;14.43;;;10.60;;
3189;SDS011;1606;51.946;10.558;2022-08-14T04:07:38;15.20;;;11.43;;
3189;SDS011;1606;51.946;10.558;2022-08-14T04:10:14;15.00;;;10.93;;
3189;SDS011;1606;51.946;10.558;2022-08-14T04:12:59;18.80;;;11.27;;
3189;SDS011;1606;51.946;10.558;2022-08-14T04:15:29;17.50;;;12.30;;
3189;SDS011;1606;51.946;10.558;2022-08-14T04:18:17;15.40;;;11.13;;
3189;SDS011;1606;51.946;10.558;2022-08-14T04:20:45;23.07;;;11.07;;
3189;SDS011;1606;51.946;10.558;2022-08-14T04:23:20;20.43;;;12.07;;
3189;SDS011;1606;51.946;10.558;2022-08-14T04:25:58;15.23;;;11.40;;
3189;SDS011;1606;51.946;10.558;2022-08-14T04:28:28;16.17;;;11.70;;
3189;SDS011;1606;51.946;10.558;2022-08-14T04:31:17;14.97;;;11.97;;
3189;SDS011;1606;51.946;10.558;2022-08-14T04:34:06;14.47;;;11.00;;
3189;SDS011;1606;51.946;10.558;2022-08-14T04:36:49;18.33;;;12.00;;
3189;SDS011;1606;51.946;10.558;2022-08-14T04:39:35;16.03;;;11.80;;
3189;SDS011;1606;51.946;10.558;2022-08-14T04:42:22;17.47;;;12.13;;
3189;SDS011;1606;51.946;10.558;2022-08-14T04:45:17;16.10;;;12.30;;
3189;SDS011;1606;51.946;10.558;2022-08-14T04:47:46;19.10;;;11.87;;
3189;SDS011;1606;51.946;10.558;2022-08-14T04:50:35;17.20;;;12.67;;
3189;SDS011;1606;51.946;10.558;2022-08-14T04:53:10;15.43;;;11.50;;
3189;SDS011;1606;51.946;10.558;2022-08-14T04:55:40;15.70;;;11.33;;
3189;SDS011;1606;51.946;10.558;2022-08-14T04:58:11;16.17;;;11.67;;
3189;SDS011;1606;51.946;10.558;2022-08-14T05:01:00;16.97;;;11.10;;
3189;SDS011;1606;51.946;10.558;2022-08-14T05:03:38;17.60;;;11.57;;
3189;SDS011;1606;51.946;10.558;2022-08-14T05:06:07;16.90;;;12.33;;
3189;SDS011;1606;51.946;10.558;2022-08-14T05:08:56;16.73;;;12.57;;
3189;SDS011;1606;51.946;10.558;2022-08-14T05:11:25;16.93;;;14.20;;
3189;SDS011;1606;51.946;10.558;2022-08-14T05:14:01;15.57;;;11.63;;
3189;SDS011;1606;51.946;10.558;2022-08-14T05:16:51;19.63;;;14.40;;
3189;SDS011;1606;51.946;10.558;2022-08-14T05:19:27;24.40;;;15.50;;
3189;SDS011;1606;51.946;10.558;2022-08-14T05:21:58;23.93;;;13.77;;
3189;SDS011;1606;51.946;10.558;2022-08-14T05:24:44;16.90;;;12.73;;
3189;SDS011;1606;51.946;10.558;2022-08-14T05:27:16;23.53;;;15.10;;
3189;SDS011;1606;51.946;10.558;2022-08-14T05:29:49;20.15;;;13.93;;
3189;SDS011;1606;51.946;10.558;2022-08-14T05:32:19;17.97;;;14.30;;
3189;SDS011;1606;51.946;10.558;2022-08-14T05:34:48;20.50;;;14.57;;
3189;SDS011;1606;51.946;10.558;2022-08-14T05:37:16;17.23;;;13.70;;
3189;SDS011;1606;51.946;10.558;2022-08-14T05:39:44;18.13;;;14.17;;
3189;SDS011;1606;51.946;10.558;2022-08-14T05:42:13;20.33;;;14.63;;
3189;SDS011;1606;51.946;10.558;2022-08-14T05:44:52;18.37;;;13.70;;
3189;SDS011;1606;51.946;10.558;2022-08-14T05:47:22;18.10;;;13.83;;
3189;SDS011;1606;51.946;10.558;2022-08-14T05:50:05;19.37;;;14.20;;
3189;SDS011;1606;51.946;10.558;2022-08-14T05:52:43;20.00;;;13.77;;
3189;SDS011;1606;51.946;10.558;2022-08-14T05:55:11;17.97;;;14.53;;
3189;SDS011;1606;51.946;10.558;2022-08-14T05:57:50;17.37;;;13.13;;
3189;SDS011;1606;51.946;10.558;2022-08-14T06:00:20;20.73;;;15.17;;
3189;SDS011;1606;51.946;10.558;2022-08-14T06:02:59;20.13;;;14.37;;
3189;SDS011;1606;51.946;10.558;2022-08-14T06:05:32;20.60;;;15.07;;
3189;SDS011;1606;51.946;10.558;2022-08-14T06:08:04;17.80;;;12.80;;
3189;SDS011;1606;51.946;10.558;2022-08-14T06:10:34;20.30;;;13.03;;
3189;SDS011;1606;51.946;10.558;2022-08-14T06:13:01;17.17;;;14.27;;
3189;SDS011;1606;51.946;10.558;2022-08-14T06:15:29;16.83;;;11.60;;
3189;SDS011;1606;51.946;10.558;2022-08-14T06:17:59;17.27;;;12.93;;
3189;SDS011;1606;51.946;10.558;2022-08-14T06:20:27;17.93;;;12.23;;
3189;SDS011;1606;51.946;10.558;2022-08-14T06:22:55;19.43;;;11.30;;
3189;SDS011;1606;51.946;10.558;2022-08-14T06:25:24;16.03;;;11.67;;
3189;SDS011;1606;51.946;10.558;2022-08-14T06:27:53;16.42;;;12.10;;
3189;SDS011;1606;51.946;10.558;2022-08-14T06:30:26;16.60;;;12.23;;
3189;SDS011;1606;51.946;10.558;2022-08-14T06:33:14;14.50;;;10.90;;
3189;SDS011;1606;51.946;10.558;2022-08-14T06:35:43;15.10;;;11.43;;
3189;SDS011;1606;51.946;10.558;2022-08-14T06:38:13;15.53;;;11.07;;
3189;SDS011;1606;51.946;10.558;2022-08-14T06:40:43;17.10;;;11.23;;
3189;SDS011;1606;51.946;10.558;2022-08-14T06:43:12;15.93;;;11.47;;
3189;SDS011;1606;51.946;10.558;2022-08-14T06:45:43;26.83;;;11.77;;
3189;SDS011;1606;51.946;10.558;2022-08-14T06:48:22;17.20;;;11.57;;
3189;SDS011;1606;51.946;10.558;2022-08-14T06:50:51;14.80;;;11.63;;
3189;SDS011;1606;51.946;10.558;2022-08-14T06:53:20;15.50;;;11.30;;
3189;SDS011;1606;51.946;10.558;2022-08-14T06:55:53;18.73;;;11.90;;
3189;SDS011;1606;51.946;10.558;2022-08-14T06:58:27;13.93;;;10.90;;
3189;SDS011;1606;51.946;10.558;2022-08-14T07:00:57;15.43;;;12.07;;
3189;SDS011;1606;51.946;10.558;2022-08-14T07:03:54;15.33;;;11.40;;
3189;SDS011;1606;51.946;10.558;2022-08-14T07:06:48;16.50;;;12.30;;
3189;SDS011;1606;51.946;10.558;2022-08-14T07:09:16;17.83;;;10.17;;
3189;SDS011;1606;51.946;10.558;2022-08-14T07:11:48;15.80;;;11.60;;
3189;SDS011;1606;51.946;10.558;2022-08-14T07:14:16;15.70;;;10.37;;
3189;SDS011;1606;51.946;10.558;2022-08-14T07:16:44;14.37;;;10.40;;
3189;SDS011;1606;51.946;10.558;2022-08-14T07:19:16;15.13;;;10.63;;
3189;SDS011;1606;51.946;10.558;2022-08-14T07:21:46;12.73;;;9.57;;
3189;SDS011;1606;51.946;10.558;2022-08-14T07:24:15;13.93;;;10.43;;
3189;SDS011;1606;51.946;10.558;2022-08-14T07:26:51;14.63;;;10.47;;
3189;SDS011;1606;51.946;10.558;2022-08-14T07:29:19;14.00;;;9.83;;
3189;SDS011;1606;51.946;10.558;2022-08-14T07:31:51;14.77;;;9.30;;
3189;SDS011;1606;51.946;10.558;2022-08-14T07:34:20;15.00;;;10.43;;
3189;SDS011;1606;51.946;10.558;2022-08-14T07:37:02;14.00;;;9.93;;
3189;SDS011;1606;51.946;10.558;2022-08-14T07:39:31;14.70;;;9.90;;
3189;SDS011;1606;51.946;10.558;2022-08-14T07:42:00;14.30;;;10.80;;
3189;SDS011;1606;51.946;10.558;2022-08-14T07:44:28;12.83;;;8.83;;
3189;SDS011;1606;51.946;10.558;2022-08-14T07:47:11;13.20;;;8.20;;
3189;SDS011;1606;51.946;10.558;2022-08-14T07:49:43;15.40;;;10.10;;
3189;SDS011;1606;51.946;10.558;2022-08-14T07:52:25;14.27;;;10.07;;
3189;SDS011;1606;51.946;10.558;2022-08-14T07:54:56;14.97;;;9.33;;
3189;SDS011;1606;51.946;10.558;2022-08-14T07:57:24;12.87;;;8.67;;
3189;SDS011;1606;51.946;10.558;2022-08-14T07:59:52;13.57;;;8.80;;
3189;SDS011;1606;51.946;10.558;2022-08-14T08:02:20;14.93;;;9.80;;
3189;SDS011;1606;51.946;10.558;2022-08-14T08:04:52;13.90;;;9.20;;
3189;SDS011;1606;51.946;10.558;2022-08-14T08:07:25;13.80;;;8.80;;
3189;SDS011;1606;51.946;10.558;2022-08-14T08:09:57;14.90;;;9.80;;
3189;SDS011;1606;51.946;10.558;2022-08-14T08:12:27;12.80;;;8.20;;
3189;SDS011;1606;51.946;10.558;2022-08-14T08:14:57;14.70;;;9.50;;
3189;SDS011;1606;51.946;10.558;2022-08-14T08:17:33;12.43;;;8.53;;
3189;SDS011;1606;51.946;10.558;2022-08-14T08:20:06;14.50;;;9.13;;
3189;SDS011;1606;51.946;10.558;2022-08-14T08:22:39;13.47;;;8.80;;
3189;SDS011;1606;51.946;10.558;2022-08-14T08:25:13;13.57;;;9.10;;
3189;SDS011;1606;51.946;10.558;2022-08-14T08:27:52;12.43;;;8.90;;
3189;SDS011;1606;51.946;10.558;2022-08-14T08:30:25;14.80;;;8.93;;
3189;SDS011;1606;51.946;10.558;2022-08-14T08:32:55;13.00;;;8.73;;
3189;SDS011;1606;51.946;10.558;2022-08-14T08:35:26;12.20;;;7.97;;
3189;SDS011;1606;51.946;10.558;2022-08-14T08:38:13;15.57;;;10.07;;
3189;SDS011;1606;51.946;10.558;2022-08-14T08:41:02;15.40;;;8.33;;
3189;SDS011;1606;51.946;10.558;2022-08-14T08:43:36;12.83;;;9.37;;
3189;SDS011;1606;51.946;10.558;2022-08-14T08:46:04;11.07;;;7.90;;
3189;SDS011;1606;51.946;10.558;2022-08-14T08:48:47;13.00;;;8.63;;
3189;SDS011;1606;51.946;10.558;2022-08-14T08:51:21;14.20;;;8.67;;
3189;SDS011;1606;51.946;10.558;2022-08-14T08:53:59;13.67;;;9.20;;
3189;SDS011;1606;51.946;10.558;2022-08-14T08:56:34;12.67;;;8.47;;
3189;SDS011;1606;51.946;10.558;2022-08-14T08:59:18;13.67;;;8.73;;
3189;SDS011;1606;51.946;10.558;2022-08-14T09:01:47;12.97;;;8.63;;
3189;SDS011;1606;51.946;10.558;2022-08-14T09:04:21;12.00;;;8.53;;
3189;SDS011;1606;51.946;10.558;2022-08-14T09:06:52;11.20;;;7.80;;
3189;SDS011;1606;51.946;10.558;2022-08-14T09:09:36;10.50;;;7.80;;
3189;SDS011;1606;51.946;10.558;2022-08-14T09:12:24;11.93;;;8.03;;
3189;SDS011;1606;51.946;10.558;2022-08-14T09:14:58;11.80;;;8.53;;
3189;SDS011;1606;51.946;10.558;2022-08-14T09:17:27;12.73;;;8.60;;
3189;SDS011;1606;51.946;10.558;2022-08-14T09:19:55;14.23;;;8.33;;
3189;SDS011;1606;51.946;10.558;2022-08-14T09:22:30;14.37;;;8.93;;
3189;SDS011;1606;51.946;10.558;2022-08-14T09:25:08;12.07;;;7.97;;
3189;SDS011;1606;51.946;10.558;2022-08-14T09:27:40;14.55;;;8.68;;
3189;SDS011;1606;51.946;10.558;2022-08-14T09:30:08;13.60;;;9.23;;
3189;SDS011;1606;51.946;10.558;2022-08-14T09:33:03;11.23;;;8.50;;
3189;SDS011;1606;51.946;10.558;2022-08-14T09:35:56;14.00;;;8.73;;
3189;SDS011;1606;51.946;10.558;2022-08-14T09:38:36;11.50;;;8.33;;
3189;SDS011;1606;51.946;10.558;2022-08-14T09:41:12;13.33;;;9.20;;
3189;SDS011;1606;51.946;10.558;2022-08-14T09:44:19;15.23;;;8.73;;
3189;SDS011;1606;51.946;10.558;2022-08-14T09:47:03;13.40;;;7.77;;
3189;SDS011;1606;51.946;10.558;2022-08-14T09:49:32;11.33;;;8.03;;
3189;SDS011;1606;51.946;10.558;2022-08-14T09:52:07;12.93;;;8.87;;
3189;SDS011;1606;51.946;10.558;2022-08-14T09:54:57;14.83;;;7.97;;
3189;SDS011;1606;51.946;10.558;2022-08-14T09:57:26;12.50;;;8.30;;
3189;SDS011;1606;51.946;10.558;2022-08-14T09:59:56;14.27;;;9.63;;
3189;SDS011;1606;51.946;10.558;2022-08-14T10:02:25;17.50;;;9.00;;
3189;SDS011;1606;51.946;10.558;2022-08-14T10:05:00;13.13;;;9.53;;
3189;SDS011;1606;51.946;10.558;2022-08-14T10:07:30;11.83;;;8.13;;
3189;SDS011;1606;51.946;10.558;2022-08-14T10:10:00;12.00;;;8.47;;
3189;SDS011;1606;51.946;10.558;2022-08-14T10:12:49;14.87;;;9.40;;
3189;SDS011;1606;51.946;10.558;2022-08-14T10:15:25;15.30;;;8.87;;
3189;SDS011;1606;51.946;10.558;2022-08-14T10:18:03;12.10;;;9.00;;
3189;SDS011;1606;51.946;10.558;2022-08-14T10:20:43;18.30;;;9.13;;
3189;SDS011;1606;51.946;10.558;2022-08-14T10:23:21;12.63;;;8.30;;
3189;SDS011;1606;51.946;10.558;2022-08-14T10:25:57;12.50;;;8.07;;
3189;SDS011;1606;51.946;10.558;2022-08-14T10:28:36;14.40;;;8.57;;
3189;SDS011;1606;51.946;10.558;2022-08-14T10:31:28;13.03;;;8.93;;
3189;SDS011;1606;51.946;10.558;2022-08-14T10:34:11;12.93;;;8.80;;
3189;SDS011;1606;51.946;10.558;2022-08-14T10:36:44;11.90;;;8.40;;
3189;SDS011;1606;51.946;10.558;2022-08-14T10:39:16;14.20;;;9.40;;
3189;SDS011;1606;51.946;10.558;2022-08-14T10:41:58;12.20;;;9.40;;
3189;SDS011;1606;51.946;10.558;2022-08-14T10:44:42;12.77;;;9.50;;
3189;SDS011;1606;51.946;10.558;2022-08-14T10:47:12;13.33;;;9.20;;
3189;SDS011;1606;51.946;10.558;2022-08-14T10:50:00;13.90;;;9.00;;
3189;SDS011;1606;51.946;10.558;2022-08-14T10:52:30;11.53;;;8.00;;
3189;SDS011;1606;51.946;10.558;2022-08-14T10:55:04;14.73;;;9.33;;
3189;SDS011;1606;51.946;10.558;2022-08-14T10:57:46;12.80;;;9.17;;
3189;SDS011;1606;51.946;10.558;2022-08-14T11:00:17;12.43;;;8.70;;
3189;SDS011;1606;51.946;10.558;2022-08-14T11:03:01;13.83;;;9.00;;
3189;SDS011;1606;51.946;10.558;2022-08-14T11:05:39;13.47;;;8.30;;
3189;SDS011;1606;51.946;10.558;2022-08-14T11:08:08;13.10;;;8.30;;
3189;SDS011;1606;51.946;10.558;2022-08-14T11:10:43;14.23;;;9.13;;
3189;SDS011;1606;51.946;10.558;2022-08-14T11:13:17;13.43;;;9.50;;
3189;SDS011;1606;51.946;10.558;2022-08-14T11:15:49;13.60;;;8.70;;
3189;SDS011;1606;51.946;10.558;2022-08-14T11:18:19;12.73;;;9.40;;
3189;SDS011;1606;51.946;10.558;2022-08-14T11:21:05;14.32;;;9.30;;
3189;SDS011;1606;51.946;10.558;2022-08-14T11:23:35;11.90;;;7.70;;
3189;SDS011;1606;51.946;10.558;2022-08-14T11:26:09;13.43;;;8.67;;
3189;SDS011;1606;51.946;10.558;2022-08-14T11:28:41;14.20;;;9.00;;
3189;SDS011;1606;51.946;10.558;2022-08-14T11:31:14;12.40;;;8.03;;
3189;SDS011;1606;51.946;10.558;2022-08-14T11:33:46;12.00;;;8.17;;
3189;SDS011;1606;51.946;10.558;2022-08-14T11:36:15;12.10;;;8.00;;
3189;SDS011;1606;51.946;10.558;2022-08-14T11:38:44;12.00;;;8.83;;
3189;SDS011;1606;51.946;10.558;2022-08-14T11:41:13;11.50;;;7.90;;
3189;SDS011;1606;51.946;10.558;2022-08-14T11:43:44;13.07;;;8.40;;
3189;SDS011;1606;51.946;10.558;2022-08-14T11:46:23;10.77;;;7.73;;
3189;SDS011;1606;51.946;10.558;2022-08-14T11:49:03;12.20;;;7.73;;
3189;SDS011;1606;51.946;10.558;2022-08-14T11:51:32;11.87;;;8.40;;
3189;SDS011;1606;51.946;10.558;2022-08-14T11:54:19;10.80;;;7.77;;
3189;SDS011;1606;51.946;10.558;2022-08-14T11:57:00;12.17;;;8.17;;
3189;SDS011;1606;51.946;10.558;2022-08-14T11:59:31;12.90;;;7.60;;
3189;SDS011;1606;51.946;10.558;2022-08-14T12:02:07;13.17;;;7.60;;
3189;SDS011;1606;51.946;10.558;2022-08-14T12:04:56;11.07;;;8.17;;
3189;SDS011;1606;51.946;10.558;2022-08-14T12:07:24;13.37;;;7.60;;
3189;SDS011;1606;51.946;10.558;2022-08-14T12:09:55;11.50;;;7.60;;
3189;SDS011;1606;51.946;10.558;2022-08-14T12:12:25;10.93;;;8.13;;
3189;SDS011;1606;51.946;10.558;2022-08-14T12:15:03;10.20;;;7.70;;
3189;SDS011;1606;51.946;10.558;2022-08-14T12:17:42;10.87;;;7.97;;
3189;SDS011;1606;51.946;10.558;2022-08-14T12:20:15;11.07;;;7.90;;
3189;SDS011;1606;51.946;10.558;2022-08-14T12:22:58;10.97;;;8.50;;
3189;SDS011;1606;51.946;10.558;2022-08-14T12:25:27;12.27;;;9.13;;
3189;SDS011;1606;51.946;10.558;2022-08-14T12:28:00;10.73;;;8.50;;
3189;SDS011;1606;51.946;10.558;2022-08-14T12:30:35;12.53;;;7.70;;
3189;SDS011;1606;51.946;10.558;2022-08-14T12:33:18;11.80;;;8.80;;
3189;SDS011;1606;51.946;10.558;2022-08-14T12:35:59;10.70;;;8.23;;
3189;SDS011;1606;51.946;10.558;2022-08-14T12:38:31;10.80;;;8.60;;
3189;SDS011;1606;51.946;10.558;2022-08-14T12:41:02;15.43;;;8.60;;
3189;SDS011;1606;51.946;10.558;2022-08-14T12:43:42;10.10;;;7.57;;
3189;SDS011;1606;51.946;10.558;2022-08-14T12:46:21;12.90;;;7.50;;
3189;SDS011;1606;51.946;10.558;2022-08-14T12:48:54;10.43;;;8.00;;
3189;SDS011;1606;51.946;10.558;2022-08-14T12:51:24;12.00;;;9.53;;
3189;SDS011;1606;51.946;10.558;2022-08-14T12:53:56;11.60;;;9.17;;
3189;SDS011;1606;51.946;10.558;2022-08-14T12:56:25;12.57;;;8.80;;
3189;SDS011;1606;51.946;10.558;2022-08-14T12:58:59;11.70;;;8.77;;
3189;SDS011;1606;51.946;10.558;2022-08-14T13:01:30;11.10;;;8.50;;
3189;SDS011;1606;51.946;10.558;2022-08-14T13:04:21;10.63;;;8.50;;
3189;SDS011;1606;51.946;10.558;2022-08-14T13:06:49;11.40;;;8.43;;
3189;SDS011;1606;51.946;10.558;2022-08-14T13:09:18;10.40;;;8.10;;
3189;SDS011;1606;51.946;10.558;2022-08-14T13:11:49;12.60;;;9.35;;
3189;SDS011;1606;51.946;10.558;2022-08-14T13:14:39;10.40;;;8.50;;
3189;SDS011;1606;51.946;10.558;2022-08-14T13:17:15;12.00;;;8.80;;
3189;SDS011;1606;51.946;10.558;2022-08-14T13:19:43;12.30;;;8.90;;
3189;SDS011;1606;51.946;10.558;2022-08-14T13:22:14;13.00;;;10.00;;
3189;SDS011;1606;51.946;10.558;2022-08-14T13:24:58;19.43;;;9.43;;
3189;SDS011;1606;51.946;10.558;2022-08-14T13:27:30;10.97;;;8.63;;
3189;SDS011;1606;51.946;10.558;2022-08-14T13:30:06;11.20;;;7.93;;
3189;SDS011;1606;51.946;10.558;2022-08-14T13:32:47;12.10;;;8.77;;
3189;SDS011;1606;51.946;10.558;2022-08-14T13:35:15;12.67;;;9.50;;
3189;SDS011;1606;51.946;10.558;2022-08-14T13:37:44;13.57;;;9.60;;
3189;SDS011;1606;51.946;10.558;2022-08-14T13:40:17;11.97;;;8.97;;
3189;SDS011;1606;51.946;10.558;2022-08-14T13:42:51;10.33;;;7.50;;
3189;SDS011;1606;51.946;10.558;2022-08-14T13:45:22;12.60;;;8.73;;
3189;SDS011;1606;51.946;10.558;2022-08-14T13:48:13;12.80;;;9.03;;
3189;SDS011;1606;51.946;10.558;2022-08-14T13:50:58;12.43;;;8.60;;
3189;SDS011;1606;51.946;10.558;2022-08-14T13:53:30;11.57;;;8.23;;
3189;SDS011;1606;51.946;10.558;2022-08-14T13:56:06;12.93;;;9.47;;
3189;SDS011;1606;51.946;10.558;2022-08-14T13:58:56;12.77;;;8.03;;
3189;SDS011;1606;51.946;10.558;2022-08-14T14:01:25;11.13;;;7.97;;
3189;SDS011;1606;51.946;10.558;2022-08-14T14:03:56;9.47;;;7.20;;
3189;SDS011;1606;51.946;10.558;2022-08-14T14:06:27;12.17;;;8.83;;
3189;SDS011;1606;51.946;10.558;2022-08-14T14:08:57;11.00;;;8.77;;
3189;SDS011;1606;51.946;10.558;2022-08-14T14:11:25;11.90;;;8.97;;
3189;SDS011;1606;51.946;10.558;2022-08-14T14:13:56;12.17;;;9.10;;
3189;SDS011;1606;51.946;10.558;2022-08-14T14:16:25;11.03;;;7.80;;
3189;SDS011;1606;51.946;10.558;2022-08-14T14:18:58;10.43;;;8.20;;
3189;SDS011;1606;51.946;10.558;2022-08-14T14:21:35;10.20;;;7.27;;
3189;SDS011;1606;51.946;10.558;2022-08-14T14:24:07;11.00;;;8.07;;
3189;SDS011;1606;51.946;10.558;2022-08-14T14:26:42;12.13;;;8.37;;
3189;SDS011;1606;51.946;10.558;2022-08-14T14:29:12;10.50;;;7.37;;
3189;SDS011;1606;51.946;10.558;2022-08-14T14:31:42;10.20;;;7.33;;
3189;SDS011;1606;51.946;10.558;2022-08-14T14:34:13;10.43;;;7.57;;
3189;SDS011;1606;51.946;10.558;2022-08-14T14:36:55;10.60;;;7.53;;
3189;SDS011;1606;51.946;10.558;2022-08-14T14:39:28;9.43;;;6.60;;
3189;SDS011;1606;51.946;10.558;2022-08-14T14:42:17;11.40;;;6.90;;
3189;SDS011;1606;51.946;10.558;2022-08-14T14:44:59;11.30;;;7.50;;
3189;SDS011;1606;51.946;10.558;2022-08-14T14:47:31;9.90;;;6.93;;
3189;SDS011;1606;51.946;10.558;2022-08-14T14:50:02;9.50;;;6.90;;
3189;SDS011;1606;51.946;10.558;2022-08-14T14:52:33;14.57;;;8.07;;
3189;SDS011;1606;51.946;10.558;2022-08-14T14:55:02;11.73;;;7.60;;
3189;SDS011;1606;51.946;10.558;2022-08-14T14:57:34;12.87;;;7.27;;
3189;SDS011;1606;51.946;10.558;2022-08-14T15:00:03;10.50;;;7.33;;
3189;SDS011;1606;51.946;10.558;2022-08-14T15:02:38;9.90;;;6.90;;
3189;SDS011;1606;51.946;10.558;2022-08-14T15:05:11;12.17;;;7.30;;
3189;SDS011;1606;51.946;10.558;2022-08-14T15:07:41;11.63;;;8.03;;
3189;SDS011;1606;51.946;10.558;2022-08-14T15:10:12;9.33;;;6.80;;
3189;SDS011;1606;51.946;10.558;2022-08-14T15:12:56;9.13;;;6.67;;
3189;SDS011;1606;51.946;10.558;2022-08-14T15:15:30;11.10;;;7.00;;
3189;SDS011;1606;51.946;10.558;2022-08-14T15:18:03;10.83;;;6.53;;
3189;SDS011;1606;51.946;10.558;2022-08-14T15:20:54;20.63;;;6.93;;
3189;SDS011;1606;51.946;10.558;2022-08-14T15:23:23;11.17;;;7.53;;
3189;SDS011;1606;51.946;10.558;2022-08-14T15:26:09;10.00;;;6.77;;
3189;SDS011;1606;51.946;10.558;2022-08-14T15:28:57;11.13;;;7.33;;
3189;SDS011;1606;51.946;10.558;2022-08-14T15:31:31;9.43;;;6.93;;